sensor_id;sensor_type;location;lat;lon;timestamp;pressure;altitude;pressure_sealevel;temperature;humidity
64844;BME280;51310;52.198;5.422;2023-07-09T00:02:15;101555.06;;;23.98;59.31
64844;BME280;51310;52.198;5.422;2023-07-09T00:04:42;101560.53;;;23.98;59.01
64844;BME280;51310;52.198;5.422;2023-07-09T00:07:32;101545.84;;;23.90;59.22
64844;BME280;51310;52.198;5.422;2023-07-09T00:10:00;101548.91;;;23.87;58.06
64844;BME280;51310;52.198;5.422;2023-07-09T00:12:26;101551.63;;;23.79;57.88
64844;BME280;51310;52.198;5.422;2023-07-09T00:14:53;101553.16;;;23.82;57.94
64844;BME280;51310;52.198;5.422;2023-07-09T00:17:29;101570.75;;;23.87;58.01
64844;BME280;51310;52.198;5.422;2023-07-09T00:19:59;101574.84;;;23.83;58.21
64844;BME280;51310;52.198;5.422;2023-07-09T00:22:26;101572.59;;;23.79;58.29
64844;BME280;51310;52.198;5.422;2023-07-09T00:24:55;101567.94;;;23.71;58.91
64844;BME280;51310;52.198;5.422;2023-07-09T00:27:25;101578.00;;;23.70;59.23
64844;BME280;51310;52.198;5.422;2023-07-09T00:29:54;101581.91;;;23.68;59.43
64844;BME280;51310;52.198;5.422;2023-07-09T00:32:20;101592.13;;;23.66;59.66
64844;BME280;51310;52.198;5.422;2023-07-09T00:34:50;101585.13;;;23.63;59.98
64844;BME280;51310;52.198;5.422;2023-07-09T00:37:23;101579.13;;;23.52;60.02
64844;BME280;51310;52.198;5.422;2023-07-09T00:39:54;101582.69;;;23.52;60.03
64844;BME280;51310;52.198;5.422;2023-07-09T00:42:21;101584.72;;;23.50;60.82
64844;BME280;51310;52.198;5.422;2023-07-09T00:44:54;101581.16;;;23.49;61.03
64844;BME280;51310;52.198;5.422;2023-07-09T00:47:51;101595.13;;;23.46;61.08
64844;BME280;51310;52.198;5.422;2023-07-09T00:50:37;101584.72;;;23.42;61.49
64844;BME280;51310;52.198;5.422;2023-07-09T00:53:24;101580.38;;;23.31;61.44
64844;BME280;51310;52.198;5.422;2023-07-09T00:56:02;101593.38;;;23.37;61.90
64844;BME280;51310;52.198;5.422;2023-07-09T00:58:38;101589.19;;;23.25;61.89
64844;BME280;51310;52.198;5.422;2023-07-09T01:01:09;101590.06;;;23.25;61.95
64844;BME280;51310;52.198;5.422;2023-07-09T01:03:47;101596.75;;;23.31;62.25
64844;BME280;51310;52.198;5.422;2023-07-09T01:06:25;101596.84;;;23.21;62.43
64844;BME280;51310;52.198;5.422;2023-07-09T01:08:58;101599.13;;;23.26;62.62
64844;BME280;51310;52.198;5.422;2023-07-09T01:11:26;101598.22;;;23.25;63.02
64844;BME280;51310;52.198;5.422;2023-07-09T01:14:00;101594.59;;;23.17;63.18
64844;BME280;51310;52.198;5.422;2023-07-09T01:16:36;101596.97;;;23.12;63.79
64844;BME280;51310;52.198;5.422;2023-07-09T01:19:05;101591.16;;;23.06;63.65
64844;BME280;51310;52.198;5.422;2023-07-09T01:21:32;101583.28;;;23.03;64.04
64844;BME280;51310;52.198;5.422;2023-07-09T01:24:13;101591.63;;;23.02;64.12
64844;BME280;51310;52.198;5.422;2023-07-09T01:26:41;101586.63;;;22.97;64.25
64844;BME280;51310;52.198;5.422;2023-07-09T01:29:09;101586.78;;;22.96;64.64
64844;BME280;51310;52.198;5.422;2023-07-09T01:31:35;101578.00;;;22.84;64.75
64844;BME280;51310;52.198;5.422;2023-07-09T01:34:01;101575.91;;;22.78;65.10
64844;BME280;51310;52.198;5.422;2023-07-09T01:36:27;101576.38;;;22.73;64.93
64844;BME280;51310;52.198;5.422;2023-07-09T01:38:56;101577.41;;;22.72;65.30
64844;BME280;51310;52.198;5.422;2023-07-09T01:41:22;101591.56;;;22.76;64.95
64844;BME280;51310;52.198;5.422;2023-07-09T01:43:48;101585.41;;;22.74;65.23
64844;BME280;51310;52.198;5.422;2023-07-09T01:46:14;101590.16;;;22.72;65.33
64844;BME280;51310;52.198;5.422;2023-07-09T01:48:40;101575.78;;;22.61;65.57
64844;BME280;51310;52.198;5.422;2023-07-09T01:51:13;101576.97;;;22.59;65.15
64844;BME280;51310;52.198;5.422;2023-07-09T01:53:43;101599.28;;;22.62;65.69
64844;BME280;51310;52.198;5.422;2023-07-09T01:56:12;101598.59;;;22.60;65.43
64844;BME280;51310;52.198;5.422;2023-07-09T01:58:38;101600.59;;;22.58;65.62
64844;BME280;51310;52.198;5.422;2023-07-09T02:01:07;101603.78;;;22.54;65.58
64844;BME280;51310;52.198;5.422;2023-07-09T02:03:34;101593.56;;;22.48;65.58
64844;BME280;51310;52.198;5.422;2023-07-09T02:06:00;101598.53;;;22.52;65.55
64844;BME280;51310;52.198;5.422;2023-07-09T02:08:28;101608.41;;;22.53;66.00
64844;BME280;51310;52.198;5.422;2023-07-09T02:10:54;101598.81;;;22.49;66.00
64844;BME280;51310;52.198;5.422;2023-07-09T02:13:20;101594.41;;;22.48;65.73
64844;BME280;51310;52.198;5.422;2023-07-09T02:15:45;101602.00;;;22.44;65.72
64844;BME280;51310;52.198;5.422;2023-07-09T02:18:15;101588.34;;;22.36;65.60
64844;BME280;51310;52.198;5.422;2023-07-09T02:20:41;101586.09;;;22.32;65.73
64844;BME280;51310;52.198;5.422;2023-07-09T02:23:08;101601.53;;;22.31;66.16
64844;BME280;51310;52.198;5.422;2023-07-09T02:25:34;101595.09;;;22.32;66.07
64844;BME280;51310;52.198;5.422;2023-07-09T02:28:00;101597.97;;;22.31;66.22
64844;BME280;51310;52.198;5.422;2023-07-09T02:30:26;101585.59;;;22.18;66.46
64844;BME280;51310;52.198;5.422;2023-07-09T02:32:52;101602.72;;;22.29;65.96
64844;BME280;51310;52.198;5.422;2023-07-09T02:35:22;101576.56;;;22.18;66.28
64844;BME280;51310;52.198;5.422;2023-07-09T02:37:48;101605.75;;;22.26;66.15
64844;BME280;51310;52.198;5.422;2023-07-09T02:40:15;101598.03;;;22.21;66.63
64844;BME280;51310;52.198;5.422;2023-07-09T02:42:41;101601.22;;;22.16;66.45
64844;BME280;51310;52.198;5.422;2023-07-09T02:45:08;101576.69;;;21.98;66.53
64844;BME280;51310;52.198;5.422;2023-07-09T02:47:35;101583.84;;;21.99;67.20
64844;BME280;51310;52.198;5.422;2023-07-09T02:50:01;101592.09;;;22.08;67.08
64844;BME280;51310;52.198;5.422;2023-07-09T02:52:28;101603.84;;;22.08;66.95
64844;BME280;51310;52.198;5.422;2023-07-09T02:54:54;101606.16;;;22.03;67.25
64844;BME280;51310;52.198;5.422;2023-07-09T02:57:20;101601.72;;;22.02;67.21
64844;BME280;51310;52.198;5.422;2023-07-09T02:59:46;101595.75;;;21.98;67.26
64844;BME280;51310;52.198;5.422;2023-07-09T03:02:12;101600.63;;;21.95;67.32
64844;BME280;51310;52.198;5.422;2023-07-09T03:04:38;101584.50;;;21.83;67.38
64844;BME280;51310;52.198;5.422;2023-07-09T03:07:04;101599.91;;;21.93;67.52
64844;BME280;51310;52.198;5.422;2023-07-09T03:09:30;101596.19;;;21.94;67.41
64844;BME280;51310;52.198;5.422;2023-07-09T03:11:56;101580.09;;;21.82;67.48
64844;BME280;51310;52.198;5.422;2023-07-09T03:14:22;101605.34;;;21.93;67.46
64844;BME280;51310;52.198;5.422;2023-07-09T03:16:48;101608.25;;;21.91;67.54
64844;BME280;51310;52.198;5.422;2023-07-09T03:19:14;101591.25;;;21.79;67.60
64844;BME280;51310;52.198;5.422;2023-07-09T03:21:40;101606.13;;;21.85;67.61
64844;BME280;51310;52.198;5.422;2023-07-09T03:24:06;101599.97;;;21.83;67.65
64844;BME280;51310;52.198;5.422;2023-07-09T03:26:34;101604.72;;;21.81;67.79
64844;BME280;51310;52.198;5.422;2023-07-09T03:29:00;101590.56;;;21.77;67.91
64844;BME280;51310;52.198;5.422;2023-07-09T03:31:26;101588.34;;;21.63;67.83
64844;BME280;51310;52.198;5.422;2023-07-09T03:33:52;101611.22;;;21.70;67.94
64844;BME280;51310;52.198;5.422;2023-07-09T03:36:19;101608.66;;;21.69;68.10
64844;BME280;51310;52.198;5.422;2023-07-09T03:38:46;101601.09;;;21.62;67.79
64844;BME280;51310;52.198;5.422;2023-07-09T03:41:13;101603.22;;;21.69;68.04
64844;BME280;51310;52.198;5.422;2023-07-09T03:43:39;101607.50;;;21.71;67.66
64844;BME280;51310;52.198;5.422;2023-07-09T03:46:05;101607.75;;;21.78;67.56
64844;BME280;51310;52.198;5.422;2023-07-09T03:48:31;101613.19;;;21.78;67.06
64844;BME280;51310;52.198;5.422;2023-07-09T03:50:57;101600.50;;;21.69;67.18
64844;BME280;51310;52.198;5.422;2023-07-09T03:53:23;101611.78;;;21.74;67.18
64844;BME280;51310;52.198;5.422;2023-07-09T03:55:54;101611.31;;;21.78;67.09
64844;BME280;51310;52.198;5.422;2023-07-09T03:58:23;101590.47;;;21.69;66.75
64844;BME280;51310;52.198;5.422;2023-07-09T04:00:49;101615.75;;;21.79;66.96
64844;BME280;51310;52.198;5.422;2023-07-09T04:03:15;101623.75;;;21.81;66.78
64844;BME280;51310;52.198;5.422;2023-07-09T04:05:41;101623.75;;;21.81;66.83
64844;BME280;51310;52.198;5.422;2023-07-09T04:08:07;101623.63;;;21.82;66.47
64844;BME280;51310;52.198;5.422;2023-07-09T04:10:33;101626.03;;;21.86;66.49
64844;BME280;51310;52.198;5.422;2023-07-09T04:12:59;101608.59;;;21.78;66.35
64844;BME280;51310;52.198;5.422;2023-07-09T04:15:26;101611.72;;;21.83;66.13
64844;BME280;51310;52.198;5.422;2023-07-09T04:17:52;101614.41;;;21.93;65.93
64844;BME280;51310;52.198;5.422;2023-07-09T04:20:18;101600.84;;;21.83;65.71
64844;BME280;51310;52.198;5.422;2023-07-09T04:22:44;101611.81;;;21.92;65.84
64844;BME280;51310;52.198;5.422;2023-07-09T04:25:11;101602.56;;;21.85;66.16
64844;BME280;51310;52.198;5.422;2023-07-09T04:27:38;101609.09;;;21.92;65.74
64844;BME280;51310;52.198;5.422;2023-07-09T04:30:12;101632.78;;;22.09;65.97
64844;BME280;51310;52.198;5.422;2023-07-09T04:32:42;101622.19;;;22.06;65.99
64844;BME280;51310;52.198;5.422;2023-07-09T04:35:10;101633.88;;;22.16;65.52
64844;BME280;51310;52.198;5.422;2023-07-09T04:37:39;101622.53;;;22.21;65.46
64844;BME280;51310;52.198;5.422;2023-07-09T04:40:08;101599.81;;;22.12;65.40
64844;BME280;51310;52.198;5.422;2023-07-09T04:42:37;101622.09;;;22.26;65.45
64844;BME280;51310;52.198;5.422;2023-07-09T04:45:05;101619.75;;;22.31;65.78
64844;BME280;51310;52.198;5.422;2023-07-09T04:47:32;101606.84;;;22.33;65.94
64844;BME280;51310;52.198;5.422;2023-07-09T04:49:58;101620.56;;;22.41;65.90
64844;BME280;51310;52.198;5.422;2023-07-09T04:52:24;101600.69;;;22.31;65.53
64844;BME280;51310;52.198;5.422;2023-07-09T04:54:50;101599.38;;;22.35;65.94
64844;BME280;51310;52.198;5.422;2023-07-09T04:57:16;101616.75;;;22.52;65.89
64844;BME280;51310;52.198;5.422;2023-07-09T04:59:43;101622.09;;;22.61;66.11
64844;BME280;51310;52.198;5.422;2023-07-09T05:02:09;101607.78;;;22.59;65.56
64844;BME280;51310;52.198;5.422;2023-07-09T05:04:35;101602.09;;;22.71;65.44
64844;BME280;51310;52.198;5.422;2023-07-09T05:07:01;101596.16;;;22.75;65.43
64844;BME280;51310;52.198;5.422;2023-07-09T05:09:27;101601.22;;;22.88;65.07
64844;BME280;51310;52.198;5.422;2023-07-09T05:11:53;101611.06;;;23.07;64.50
64844;BME280;51310;52.198;5.422;2023-07-09T05:14:19;101606.69;;;23.14;64.25
64844;BME280;51310;52.198;5.422;2023-07-09T05:16:45;101619.53;;;23.22;64.55
64844;BME280;51310;52.198;5.422;2023-07-09T05:19:11;101615.47;;;23.26;64.43
64844;BME280;51310;52.198;5.422;2023-07-09T05:21:38;101623.38;;;23.37;64.13
64844;BME280;51310;52.198;5.422;2023-07-09T05:24:04;101618.97;;;23.44;63.60
64844;BME280;51310;52.198;5.422;2023-07-09T05:26:31;101626.56;;;23.59;63.49
64844;BME280;51310;52.198;5.422;2023-07-09T05:28:57;101620.28;;;23.66;63.42
64844;BME280;51310;52.198;5.422;2023-07-09T05:31:23;101621.72;;;23.79;63.07
64844;BME280;51310;52.198;5.422;2023-07-09T05:33:49;101616.13;;;23.88;63.21
64844;BME280;51310;52.198;5.422;2023-07-09T05:36:15;101615.50;;;24.03;62.76
64844;BME280;51310;52.198;5.422;2023-07-09T05:38:44;101607.69;;;24.16;62.44
64844;BME280;51310;52.198;5.422;2023-07-09T05:41:14;101619.50;;;24.41;62.06
64844;BME280;51310;52.198;5.422;2023-07-09T05:43:43;101615.97;;;24.57;62.09
64844;BME280;51310;52.198;5.422;2023-07-09T05:46:10;101615.97;;;24.73;61.28
64844;BME280;51310;52.198;5.422;2023-07-09T05:48:37;101611.84;;;24.94;61.21
64844;BME280;51310;52.198;5.422;2023-07-09T05:51:03;101605.00;;;25.06;60.16
64844;BME280;51310;52.198;5.422;2023-07-09T05:53:30;101624.47;;;25.36;59.71
64844;BME280;51310;52.198;5.422;2023-07-09T05:55:57;101633.47;;;25.53;59.01
64844;BME280;51310;52.198;5.422;2023-07-09T05:58:23;101617.84;;;25.70;58.96
64844;BME280;51310;52.198;5.422;2023-07-09T06:00:51;101619.84;;;25.84;57.95
64844;BME280;51310;52.198;5.422;2023-07-09T06:03:21;101629.41;;;25.96;57.46
64844;BME280;51310;52.198;5.422;2023-07-09T06:05:48;101634.81;;;26.05;57.74
64844;BME280;51310;52.198;5.422;2023-07-09T06:08:19;101638.50;;;26.20;57.76
64844;BME280;51310;52.198;5.422;2023-07-09T06:10:59;101644.25;;;26.33;57.31
64844;BME280;51310;52.198;5.422;2023-07-09T06:13:28;101628.47;;;26.35;57.24
64844;BME280;51310;52.198;5.422;2023-07-09T06:15:57;101642.81;;;26.46;57.23
64844;BME280;51310;52.198;5.422;2023-07-09T06:18:25;101643.47;;;26.48;57.08
64844;BME280;51310;52.198;5.422;2023-07-09T06:20:58;101644.81;;;26.52;56.69
64844;BME280;51310;52.198;5.422;2023-07-09T06:23:26;101641.75;;;26.55;56.94
64844;BME280;51310;52.198;5.422;2023-07-09T06:25:52;101650.28;;;26.60;56.63
64844;BME280;51310;52.198;5.422;2023-07-09T06:28:22;101651.63;;;26.64;56.61
64844;BME280;51310;52.198;5.422;2023-07-09T06:30:51;101628.34;;;26.52;55.92
64844;BME280;51310;52.198;5.422;2023-07-09T06:33:18;101632.78;;;26.61;55.39
64844;BME280;51310;52.198;5.422;2023-07-09T06:36:04;101635.75;;;26.74;55.21
64844;BME280;51310;52.198;5.422;2023-07-09T06:38:30;101651.03;;;26.92;55.55
64844;BME280;51310;52.198;5.422;2023-07-09T06:40:59;101637.44;;;26.98;54.99
64844;BME280;51310;52.198;5.422;2023-07-09T06:43:25;101637.63;;;26.97;53.65
64844;BME280;51310;52.198;5.422;2023-07-09T06:45:54;101659.72;;;27.18;54.39
64844;BME280;51310;52.198;5.422;2023-07-09T06:48:24;101655.38;;;27.24;53.91
64844;BME280;51310;52.198;5.422;2023-07-09T06:50:53;101639.06;;;27.08;53.95
64844;BME280;51310;52.198;5.422;2023-07-09T06:53:21;101653.03;;;27.21;54.25
64844;BME280;51310;52.198;5.422;2023-07-09T06:55:48;101638.69;;;27.11;54.35
64844;BME280;51310;52.198;5.422;2023-07-09T06:58:18;101657.28;;;27.24;54.30
64844;BME280;51310;52.198;5.422;2023-07-09T07:00:45;101648.31;;;27.30;54.61
64844;BME280;51310;52.198;5.422;2023-07-09T07:03:15;101642.34;;;27.41;54.77
64844;BME280;51310;52.198;5.422;2023-07-09T07:05:46;101663.47;;;27.55;54.42
64844;BME280;51310;52.198;5.422;2023-07-09T07:08:16;101645.31;;;27.54;54.48
64844;BME280;51310;52.198;5.422;2023-07-09T07:10:45;101668.41;;;27.75;54.57
64844;BME280;51310;52.198;5.422;2023-07-09T07:13:13;101659.31;;;27.74;54.53
64844;BME280;51310;52.198;5.422;2023-07-09T07:15:40;101656.34;;;27.76;54.25
64844;BME280;51310;52.198;5.422;2023-07-09T07:18:07;101661.78;;;27.84;54.99
64844;BME280;51310;52.198;5.422;2023-07-09T07:20:34;101648.59;;;27.79;54.97
64844;BME280;51310;52.198;5.422;2023-07-09T07:23:00;101674.84;;;27.97;54.17
64844;BME280;51310;52.198;5.422;2023-07-09T07:25:26;101647.47;;;27.89;53.81
64844;BME280;51310;52.198;5.422;2023-07-09T07:27:52;101639.50;;;27.94;53.97
64844;BME280;51310;52.198;5.422;2023-07-09T07:30:19;101622.56;;;27.90;53.97
64844;BME280;51310;52.198;5.422;2023-07-09T07:32:47;101638.81;;;28.07;53.79
64844;BME280;51310;52.198;5.422;2023-07-09T07:35:14;101664.75;;;28.19;53.45
64844;BME280;51310;52.198;5.422;2023-07-09T07:37:41;101662.16;;;28.32;54.66
64844;BME280;51310;52.198;5.422;2023-07-09T07:40:08;101648.72;;;28.22;53.86
64844;BME280;51310;52.198;5.422;2023-07-09T07:42:36;101664.97;;;28.39;53.93
64844;BME280;51310;52.198;5.422;2023-07-09T07:45:03;101672.56;;;28.52;54.64
64844;BME280;51310;52.198;5.422;2023-07-09T07:47:30;101669.22;;;28.56;54.12
64844;BME280;51310;52.198;5.422;2023-07-09T07:49:56;101666.53;;;28.63;53.39
64844;BME280;51310;52.198;5.422;2023-07-09T07:52:23;101674.88;;;28.70;53.59
64844;BME280;51310;52.198;5.422;2023-07-09T07:54:50;101667.94;;;28.74;52.68
64844;BME280;51310;52.198;5.422;2023-07-09T07:57:16;101662.50;;;28.80;52.23
64844;BME280;51310;52.198;5.422;2023-07-09T07:59:42;101666.16;;;28.88;52.92
64844;BME280;51310;52.198;5.422;2023-07-09T08:02:12;101673.22;;;28.97;51.12
64844;BME280;51310;52.198;5.422;2023-07-09T08:04:40;101668.81;;;29.02;50.64
64844;BME280;51310;52.198;5.422;2023-07-09T08:07:10;101658.59;;;28.96;52.45
64844;BME280;51310;52.198;5.422;2023-07-09T08:09:37;101658.19;;;28.99;51.94
64844;BME280;51310;52.198;5.422;2023-07-09T08:12:04;101675.97;;;29.18;51.89
64844;BME280;51310;52.198;5.422;2023-07-09T08:14:36;101679.63;;;29.25;50.14
64844;BME280;51310;52.198;5.422;2023-07-09T08:17:02;101666.66;;;29.19;49.75
64844;BME280;51310;52.198;5.422;2023-07-09T08:19:28;101665.41;;;29.22;50.25
64844;BME280;51310;52.198;5.422;2023-07-09T08:21:54;101666.25;;;29.22;48.53
64844;BME280;51310;52.198;5.422;2023-07-09T08:24:20;101685.41;;;29.37;49.22
64844;BME280;51310;52.198;5.422;2023-07-09T08:26:46;101670.47;;;28.97;54.11
64844;BME280;51310;52.198;5.422;2023-07-09T08:29:12;101685.13;;;28.61;55.64
64844;BME280;51310;52.198;5.422;2023-07-09T08:31:38;101676.06;;;28.45;55.58
64844;BME280;51310;52.198;5.422;2023-07-09T08:34:06;101674.22;;;28.16;55.35
64844;BME280;51310;52.198;5.422;2023-07-09T08:36:32;101669.44;;;28.03;56.60
64844;BME280;51310;52.198;5.422;2023-07-09T08:39:00;101660.72;;;27.85;56.16
64844;BME280;51310;52.198;5.422;2023-07-09T08:41:48;101662.72;;;27.91;56.26
64844;BME280;51310;52.198;5.422;2023-07-09T08:45:10;101673.50;;;28.08;56.37
64844;BME280;51310;52.198;5.422;2023-07-09T08:48:02;101669.72;;;28.09;57.01
64844;BME280;51310;52.198;5.422;2023-07-09T08:50:42;101665.56;;;27.98;58.46
64844;BME280;51310;52.198;5.422;2023-07-09T08:55:57;101662.13;;;28.11;58.24
64844;BME280;51310;52.198;5.422;2023-07-09T08:58:28;101662.13;;;28.11;57.87
64844;BME280;51310;52.198;5.422;2023-07-09T09:06:27;101646.63;;;28.39;57.59
64844;BME280;51310;52.198;5.422;2023-07-09T09:15:25;101668.63;;;28.61;56.77
64844;BME280;51310;52.198;5.422;2023-07-09T09:17:58;101673.09;;;28.62;56.12
64844;BME280;51310;52.198;5.422;2023-07-09T09:20:37;101659.56;;;28.45;56.38
64844;BME280;51310;52.198;5.422;2023-07-09T09:23:15;101664.13;;;28.38;57.10
64844;BME280;51310;52.198;5.422;2023-07-09T09:25:49;101645.16;;;28.43;56.97
64844;BME280;51310;52.198;5.422;2023-07-09T09:28:19;101644.72;;;28.40;57.48
64844;BME280;51310;52.198;5.422;2023-07-09T09:30:45;101668.03;;;28.44;57.27
64844;BME280;51310;52.198;5.422;2023-07-09T09:33:11;101662.38;;;28.31;57.27
64844;BME280;51310;52.198;5.422;2023-07-09T09:35:41;101661.78;;;28.35;57.76
64844;BME280;51310;52.198;5.422;2023-07-09T09:38:22;101644.81;;;28.32;57.08
64844;BME280;51310;52.198;5.422;2023-07-09T09:40:48;101649.34;;;28.39;55.96
64844;BME280;51310;52.198;5.422;2023-07-09T09:43:18;101655.56;;;28.27;56.12
64844;BME280;51310;52.198;5.422;2023-07-09T09:45:49;101655.00;;;28.16;55.94
64844;BME280;51310;52.198;5.422;2023-07-09T09:48:31;101627.19;;;27.90;55.52
64844;BME280;51310;52.198;5.422;2023-07-09T09:50:59;101658.81;;;28.15;55.49
64844;BME280;51310;52.198;5.422;2023-07-09T09:53:37;101643.72;;;28.26;56.64
64844;BME280;51310;52.198;5.422;2023-07-09T09:56:11;101645.81;;;28.24;55.78
64844;BME280;51310;52.198;5.422;2023-07-09T09:58:41;101627.75;;;28.36;55.53
64844;BME280;51310;52.198;5.422;2023-07-09T10:01:18;101642.03;;;28.68;55.89
64844;BME280;51310;52.198;5.422;2023-07-09T10:03:47;101635.22;;;28.64;55.53
64844;BME280;51310;52.198;5.422;2023-07-09T10:09:43;101611.94;;;28.60;55.41
64844;BME280;51310;52.198;5.422;2023-07-09T10:15:21;101625.63;;;29.03;54.41
64844;BME280;51310;52.198;5.422;2023-07-09T10:18:10;101628.66;;;29.08;55.50
64844;BME280;51310;52.198;5.422;2023-07-09T10:21:14;101624.28;;;29.20;55.28
64844;BME280;51310;52.198;5.422;2023-07-09T10:27:00;101604.13;;;29.41;54.16
64844;BME280;51310;52.198;5.422;2023-07-09T10:29:53;101603.81;;;29.23;52.86
64844;BME280;51310;52.198;5.422;2023-07-09T10:35:54;101630.44;;;29.22;53.47
64844;BME280;51310;52.198;5.422;2023-07-09T10:39:04;101636.50;;;29.39;52.82
64844;BME280;51310;52.198;5.422;2023-07-09T10:41:37;101626.41;;;29.53;52.30
64844;BME280;51310;52.198;5.422;2023-07-09T10:44:21;101604.91;;;29.35;52.89
64844;BME280;51310;52.198;5.422;2023-07-09T10:47:01;101621.53;;;29.48;52.94
64844;BME280;51310;52.198;5.422;2023-07-09T10:49:38;101609.31;;;29.64;53.11
64844;BME280;51310;52.198;5.422;2023-07-09T10:52:25;101620.53;;;29.63;53.94
64844;BME280;51310;52.198;5.422;2023-07-09T10:57:59;101649.84;;;29.71;53.06
64844;BME280;51310;52.198;5.422;2023-07-09T11:00:39;101642.69;;;29.83;52.42
64844;BME280;51310;52.198;5.422;2023-07-09T11:03:18;101645.06;;;29.86;53.48
64844;BME280;51310;52.198;5.422;2023-07-09T11:05:49;101641.50;;;29.99;51.99
64844;BME280;51310;52.198;5.422;2023-07-09T11:08:22;101633.44;;;29.91;52.42
64844;BME280;51310;52.198;5.422;2023-07-09T11:11:01;101646.38;;;30.03;52.96
64844;BME280;51310;52.198;5.422;2023-07-09T11:13:33;101643.13;;;30.35;52.29
64844;BME280;51310;52.198;5.422;2023-07-09T11:16:06;101636.88;;;29.64;52.96
64844;BME280;51310;52.198;5.422;2023-07-09T11:18:35;101630.03;;;29.54;52.82
64844;BME280;51310;52.198;5.422;2023-07-09T11:21:06;101623.63;;;29.46;52.95
64844;BME280;51310;52.198;5.422;2023-07-09T11:23:54;101626.66;;;29.58;52.97
64844;BME280;51310;52.198;5.422;2023-07-09T11:31:40;101592.25;;;29.82;51.10
64844;BME280;51310;52.198;5.422;2023-07-09T11:37:01;101611.22;;;30.12;50.22
64844;BME280;51310;52.198;5.422;2023-07-09T11:39:43;101608.28;;;30.14;50.97
64844;BME280;51310;52.198;5.422;2023-07-09T11:42:58;101611.63;;;30.02;51.08
64844;BME280;51310;52.198;5.422;2023-07-09T11:45:31;101618.81;;;30.03;51.96
64844;BME280;51310;52.198;5.422;2023-07-09T11:50:55;101604.03;;;30.18;49.88
64844;BME280;51310;52.198;5.422;2023-07-09T11:53:50;101609.53;;;30.04;49.67
64844;BME280;51310;52.198;5.422;2023-07-09T11:56:24;101620.44;;;29.78;50.47
64844;BME280;51310;52.198;5.422;2023-07-09T11:58:54;101600.50;;;29.76;50.65
64844;BME280;51310;52.198;5.422;2023-07-09T12:01:33;101623.91;;;30.00;50.41
64844;BME280;51310;52.198;5.422;2023-07-09T12:04:05;101617.56;;;30.06;50.11
64844;BME280;51310;52.198;5.422;2023-07-09T12:06:33;101623.56;;;30.23;49.58
64844;BME280;51310;52.198;5.422;2023-07-09T12:09:00;101634.13;;;30.19;49.71
64844;BME280;51310;52.198;5.422;2023-07-09T12:11:32;101625.41;;;30.02;48.88
64844;BME280;51310;52.198;5.422;2023-07-09T12:14:11;101625.09;;;29.77;49.22
64844;BME280;51310;52.198;5.422;2023-07-09T12:17:01;101646.47;;;29.68;49.52
64844;BME280;51310;52.198;5.422;2023-07-09T12:19:30;101639.94;;;28.92;50.39
64844;BME280;51310;52.198;5.422;2023-07-09T12:21:57;101641.59;;;28.64;50.78
64844;BME280;51310;52.198;5.422;2023-07-09T12:24:29;101645.38;;;28.63;51.27
64844;BME280;51310;52.198;5.422;2023-07-09T12:27:03;101659.47;;;28.75;51.06
64844;BME280;51310;52.198;5.422;2023-07-09T12:29:42;101625.88;;;28.58;50.89
64844;BME280;51310;52.198;5.422;2023-07-09T12:32:15;101633.13;;;28.44;51.38
64844;BME280;51310;52.198;5.422;2023-07-09T12:34:50;101636.66;;;28.38;51.82
64844;BME280;51310;52.198;5.422;2023-07-09T12:37:17;101641.66;;;28.35;51.87
64844;BME280;51310;52.198;5.422;2023-07-09T12:39:44;101634.69;;;27.96;52.90
64844;BME280;51310;52.198;5.422;2023-07-09T12:42:30;101641.97;;;27.59;53.71
64844;BME280;51310;52.198;5.422;2023-07-09T12:44:58;101614.03;;;26.73;58.66
64844;BME280;51310;52.198;5.422;2023-07-09T12:47:25;101641.56;;;26.25;62.19
64844;BME280;51310;52.198;5.422;2023-07-09T12:49:51;101621.13;;;26.82;57.83
64844;BME280;51310;52.198;5.422;2023-07-09T12:52:26;101621.63;;;27.53;56.19
64844;BME280;51310;52.198;5.422;2023-07-09T12:55:00;101640.75;;;27.91;54.08
64844;BME280;51310;52.198;5.422;2023-07-09T12:57:29;101638.97;;;28.20;53.46
64844;BME280;51310;52.198;5.422;2023-07-09T12:59:56;101628.00;;;28.20;52.86
64844;BME280;51310;52.198;5.422;2023-07-09T13:02:28;101637.81;;;28.29;53.30
64844;BME280;51310;52.198;5.422;2023-07-09T13:05:06;101632.41;;;28.36;52.45
64844;BME280;51310;52.198;5.422;2023-07-09T13:07:50;101637.56;;;28.24;52.05
64844;BME280;51310;52.198;5.422;2023-07-09T13:10:40;101623.00;;;28.09;52.77
64844;BME280;51310;52.198;5.422;2023-07-09T13:13:13;101664.88;;;28.11;51.16
64844;BME280;51310;52.198;5.422;2023-07-09T13:15:44;101678.34;;;28.06;51.05
64844;BME280;51310;52.198;5.422;2023-07-09T13:18:14;101651.72;;;27.91;51.43
64844;BME280;51310;52.198;5.422;2023-07-09T13:20:46;101651.66;;;27.70;51.78
64844;BME280;51310;52.198;5.422;2023-07-09T13:23:35;101657.00;;;27.78;52.46
64844;BME280;51310;52.198;5.422;2023-07-09T13:26:01;101666.47;;;27.60;53.24
64844;BME280;51310;52.198;5.422;2023-07-09T13:28:31;101682.69;;;27.70;52.45
64844;BME280;51310;52.198;5.422;2023-07-09T13:31:11;101668.00;;;27.78;52.04
64844;BME280;51310;52.198;5.422;2023-07-09T13:33:44;101671.81;;;27.77;51.14
64844;BME280;51310;52.198;5.422;2023-07-09T13:36:15;101675.66;;;27.82;49.65
64844;BME280;51310;52.198;5.422;2023-07-09T13:38:41;101654.19;;;27.56;49.82
64844;BME280;51310;52.198;5.422;2023-07-09T13:41:15;101676.00;;;27.88;49.30
64844;BME280;51310;52.198;5.422;2023-07-09T13:43:48;101678.72;;;27.73;49.44
64844;BME280;51310;52.198;5.422;2023-07-09T13:46:15;101673.97;;;27.67;49.89
64844;BME280;51310;52.198;5.422;2023-07-09T13:48:43;101657.03;;;27.48;50.19
64844;BME280;51310;52.198;5.422;2023-07-09T13:51:23;101655.03;;;27.42;50.78